sensor_id;sensor_type;location;lat;lon;timestamp;P1;durP1;ratioP1;P2;durP2;ratioP2
3341;SDS011;1684;50.748;6.154;2022-12-07T00:01:03;73.40;;;38.03;;
3341;SDS011;1684;50.748;6.154;2022-12-07T00:03:32;66.77;;;36.57;;
3341;SDS011;1684;50.748;6.154;2022-12-07T00:06:01;69.13;;;39.47;;
3341;SDS011;1684;50.748;6.154;2022-12-07T00:08:32;74.10;;;37.80;;
3341;SDS011;1684;50.748;6.154;2022-12-07T00:11:01;90.67;;;41.67;;
3341;SDS011;1684;50.748;6.154;2022-12-07T00:13:29;89.43;;;42.60;;
3341;SDS011;1684;50.748;6.154;2022-12-07T00:15:59;85.57;;;39.33;;
3341;SDS011;1684;50.748;6.154;2022-12-07T00:18:28;75.93;;;36.60;;
3341;SDS011;1684;50.748;6.154;2022-12-07T00:20:58;77.33;;;38.97;;
3341;SDS011;1684;50.748;6.154;2022-12-07T00:23:27;83.93;;;43.23;;
3341;SDS011;1684;50.748;6.154;2022-12-07T00:26:02;72.67;;;37.77;;
3341;SDS011;1684;50.748;6.154;2022-12-07T00:28:30;82.77;;;39.83;;
3341;SDS011;1684;50.748;6.154;2022-12-07T00:31:00;79.70;;;38.60;;
3341;SDS011;1684;50.748;6.154;2022-12-07T00:33:28;78.83;;;39.83;;
3341;SDS011;1684;50.748;6.154;2022-12-07T00:35:56;75.83;;;39.07;;
3341;SDS011;1684;50.748;6.154;2022-12-07T00:38:26;73.53;;;34.60;;
3341;SDS011;1684;50.748;6.154;2022-12-07T00:40:58;46.93;;;27.70;;
3341;SDS011;1684;50.748;6.154;2022-12-07T00:43:26;75.17;;;35.00;;
3341;SDS011;1684;50.748;6.154;2022-12-07T00:45:55;82.77;;;37.10;;
3341;SDS011;1684;50.748;6.154;2022-12-07T00:48:23;78.93;;;38.67;;
3341;SDS011;1684;50.748;6.154;2022-12-07T00:50:52;55.70;;;30.50;;
3341;SDS011;1684;50.748;6.154;2022-12-07T00:53:20;70.60;;;34.83;;
3341;SDS011;1684;50.748;6.154;2022-12-07T00:55:48;73.23;;;39.83;;
3341;SDS011;1684;50.748;6.154;2022-12-07T00:58:18;59.20;;;32.43;;
3341;SDS011;1684;50.748;6.154;2022-12-07T01:00:46;81.73;;;42.33;;
3341;SDS011;1684;50.748;6.154;2022-12-07T01:03:15;66.53;;;31.90;;
3341;SDS011;1684;50.748;6.154;2022-12-07T01:05:48;67.10;;;33.67;;
3341;SDS011;1684;50.748;6.154;2022-12-07T01:08:17;63.60;;;31.60;;
3341;SDS011;1684;50.748;6.154;2022-12-07T01:10:46;80.97;;;38.33;;
3341;SDS011;1684;50.748;6.154;2022-12-07T01:13:14;74.10;;;38.43;;
3341;SDS011;1684;50.748;6.154;2022-12-07T01:15:44;47.30;;;26.00;;
3341;SDS011;1684;50.748;6.154;2022-12-07T01:18:12;65.27;;;32.50;;
3341;SDS011;1684;50.748;6.154;2022-12-07T01:20:41;71.47;;;34.87;;
3341;SDS011;1684;50.748;6.154;2022-12-07T01:23:09;53.70;;;32.07;;
3341;SDS011;1684;50.748;6.154;2022-12-07T01:25:37;69.90;;;37.77;;
3341;SDS011;1684;50.748;6.154;2022-12-07T01:28:05;68.97;;;33.93;;
3341;SDS011;1684;50.748;6.154;2022-12-07T01:30:34;70.40;;;33.70;;
3341;SDS011;1684;50.748;6.154;2022-12-07T01:33:03;48.40;;;28.10;;
3341;SDS011;1684;50.748;6.154;2022-12-07T01:35:33;77.20;;;34.50;;
3341;SDS011;1684;50.748;6.154;2022-12-07T01:38:01;64.63;;;33.67;;
3341;SDS011;1684;50.748;6.154;2022-12-07T01:40:30;60.77;;;31.00;;
3341;SDS011;1684;50.748;6.154;2022-12-07T01:42:58;63.93;;;31.00;;
3341;SDS011;1684;50.748;6.154;2022-12-07T01:48:15;66.90;;;36.70;;
3341;SDS011;1684;50.748;6.154;2022-12-07T01:50:45;74.57;;;33.97;;
3341;SDS011;1684;50.748;6.154;2022-12-07T01:53:15;72.17;;;35.00;;
3341;SDS011;1684;50.748;6.154;2022-12-07T01:55:45;78.37;;;32.00;;
3341;SDS011;1684;50.748;6.154;2022-12-07T01:58:15;75.97;;;39.10;;
3341;SDS011;1684;50.748;6.154;2022-12-07T02:00:44;88.30;;;40.87;;
3341;SDS011;1684;50.748;6.154;2022-12-07T02:03:14;82.67;;;40.70;;
3341;SDS011;1684;50.748;6.154;2022-12-07T02:05:45;96.50;;;40.77;;
3341;SDS011;1684;50.748;6.154;2022-12-07T02:08:14;60.93;;;31.67;;
3341;SDS011;1684;50.748;6.154;2022-12-07T02:10:43;55.10;;;29.97;;
3341;SDS011;1684;50.748;6.154;2022-12-07T02:13:12;113.63;;;45.10;;
3341;SDS011;1684;50.748;6.154;2022-12-07T02:15:44;108.17;;;48.57;;
3341;SDS011;1684;50.748;6.154;2022-12-07T02:18:16;94.73;;;44.53;;
3341;SDS011;1684;50.748;6.154;2022-12-07T02:20:49;120.77;;;47.97;;
3341;SDS011;1684;50.748;6.154;2022-12-07T02:29:10;96.37;;;44.37;;
3341;SDS011;1684;50.748;6.154;2022-12-07T02:31:43;68.63;;;33.70;;
3341;SDS011;1684;50.748;6.154;2022-12-07T02:34:14;97.60;;;48.30;;
3341;SDS011;1684;50.748;6.154;2022-12-07T02:36:49;89.20;;;45.90;;
3341;SDS011;1684;50.748;6.154;2022-12-07T02:39:20;99.80;;;48.10;;
3341;SDS011;1684;50.748;6.154;2022-12-07T02:41:51;87.20;;;42.70;;
3341;SDS011;1684;50.748;6.154;2022-12-07T02:44:23;88.67;;;37.70;;
3341;SDS011;1684;50.748;6.154;2022-12-07T02:46:52;84.43;;;38.30;;
3341;SDS011;1684;50.748;6.154;2022-12-07T02:49:21;90.83;;;42.00;;
3341;SDS011;1684;50.748;6.154;2022-12-07T02:51:51;78.17;;;37.77;;
3341;SDS011;1684;50.748;6.154;2022-12-07T02:54:20;74.20;;;34.50;;
3341;SDS011;1684;50.748;6.154;2022-12-07T02:56:49;86.70;;;41.73;;
3341;SDS011;1684;50.748;6.154;2022-12-07T02:59:22;96.57;;;45.87;;
3341;SDS011;1684;50.748;6.154;2022-12-07T03:01:55;96.73;;;43.37;;
3341;SDS011;1684;50.748;6.154;2022-12-07T03:04:32;109.23;;;46.13;;
3341;SDS011;1684;50.748;6.154;2022-12-07T03:07:17;77.97;;;39.90;;
3341;SDS011;1684;50.748;6.154;2022-12-07T03:09:48;99.00;;;42.57;;
3341;SDS011;1684;50.748;6.154;2022-12-07T03:12:21;80.23;;;38.03;;
3341;SDS011;1684;50.748;6.154;2022-12-07T03:14:55;103.63;;;45.60;;
3341;SDS011;1684;50.748;6.154;2022-12-07T03:17:26;85.97;;;39.50;;
3341;SDS011;1684;50.748;6.154;2022-12-07T03:19:56;100.30;;;44.93;;
3341;SDS011;1684;50.748;6.154;2022-12-07T03:22:27;92.23;;;39.00;;
3341;SDS011;1684;50.748;6.154;2022-12-07T03:24:58;66.87;;;33.00;;
3341;SDS011;1684;50.748;6.154;2022-12-07T03:27:27;81.07;;;38.23;;
3341;SDS011;1684;50.748;6.154;2022-12-07T03:29:58;33.77;;;18.60;;
3341;SDS011;1684;50.748;6.154;2022-12-07T03:32:29;61.27;;;31.70;;
3341;SDS011;1684;50.748;6.154;2022-12-07T03:35:00;56.37;;;29.63;;
3341;SDS011;1684;50.748;6.154;2022-12-07T03:37:31;72.63;;;30.30;;
3341;SDS011;1684;50.748;6.154;2022-12-07T03:40:03;70.20;;;35.87;;
3341;SDS011;1684;50.748;6.154;2022-12-07T03:42:32;69.93;;;35.63;;
3341;SDS011;1684;50.748;6.154;2022-12-07T03:45:02;61.47;;;30.77;;
3341;SDS011;1684;50.748;6.154;2022-12-07T03:47:31;66.27;;;30.20;;
3341;SDS011;1684;50.748;6.154;2022-12-07T03:50:02;59.00;;;29.67;;
3341;SDS011;1684;50.748;6.154;2022-12-07T03:52:33;58.10;;;30.83;;
3341;SDS011;1684;50.748;6.154;2022-12-07T03:55:05;58.00;;;29.73;;
3341;SDS011;1684;50.748;6.154;2022-12-07T03:57:34;80.50;;;38.07;;
3341;SDS011;1684;50.748;6.154;2022-12-07T04:00:06;72.20;;;33.97;;
3341;SDS011;1684;50.748;6.154;2022-12-07T04:02:35;57.53;;;32.00;;
3341;SDS011;1684;50.748;6.154;2022-12-07T04:05:04;64.33;;;34.00;;
3341;SDS011;1684;50.748;6.154;2022-12-07T04:07:32;49.83;;;27.67;;
3341;SDS011;1684;50.748;6.154;2022-12-07T04:10:00;57.90;;;29.03;;
3341;SDS011;1684;50.748;6.154;2022-12-07T04:12:29;54.07;;;27.27;;
3341;SDS011;1684;50.748;6.154;2022-12-07T04:14:57;56.80;;;32.53;;
3341;SDS011;1684;50.748;6.154;2022-12-07T04:17:27;65.77;;;36.20;;
3341;SDS011;1684;50.748;6.154;2022-12-07T04:19:55;81.63;;;36.60;;
3341;SDS011;1684;50.748;6.154;2022-12-07T04:22:23;67.47;;;36.67;;
3341;SDS011;1684;50.748;6.154;2022-12-07T04:24:52;64.73;;;37.37;;
3341;SDS011;1684;50.748;6.154;2022-12-07T04:27:20;74.53;;;36.80;;
3341;SDS011;1684;50.748;6.154;2022-12-07T04:29:48;79.40;;;36.90;;
3341;SDS011;1684;50.748;6.154;2022-12-07T04:32:16;73.77;;;35.70;;
3341;SDS011;1684;50.748;6.154;2022-12-07T04:34:46;57.23;;;27.80;;
3341;SDS011;1684;50.748;6.154;2022-12-07T04:37:20;56.20;;;29.83;;
3341;SDS011;1684;50.748;6.154;2022-12-07T04:39:48;56.70;;;28.10;;
3341;SDS011;1684;50.748;6.154;2022-12-07T04:42:17;67.50;;;34.20;;
3341;SDS011;1684;50.748;6.154;2022-12-07T04:44:45;79.53;;;37.30;;
3341;SDS011;1684;50.748;6.154;2022-12-07T04:47:13;70.53;;;37.00;;
3341;SDS011;1684;50.748;6.154;2022-12-07T04:49:42;57.73;;;31.40;;
3341;SDS011;1684;50.748;6.154;2022-12-07T04:52:11;74.73;;;35.10;;
3341;SDS011;1684;50.748;6.154;2022-12-07T04:54:40;63.60;;;32.27;;
3341;SDS011;1684;50.748;6.154;2022-12-07T04:57:08;75.53;;;33.67;;
3341;SDS011;1684;50.748;6.154;2022-12-07T04:59:36;65.43;;;32.77;;
3341;SDS011;1684;50.748;6.154;2022-12-07T05:02:10;75.17;;;31.50;;
3341;SDS011;1684;50.748;6.154;2022-12-07T05:04:39;67.43;;;32.90;;
3341;SDS011;1684;50.748;6.154;2022-12-07T05:07:07;82.73;;;36.73;;
3341;SDS011;1684;50.748;6.154;2022-12-07T05:09:36;66.23;;;34.07;;
3341;SDS011;1684;50.748;6.154;2022-12-07T05:12:05;79.13;;;38.83;;
3341;SDS011;1684;50.748;6.154;2022-12-07T05:14:33;67.33;;;29.43;;
3341;SDS011;1684;50.748;6.154;2022-12-07T05:17:01;82.37;;;35.80;;
3341;SDS011;1684;50.748;6.154;2022-12-07T05:19:30;69.00;;;33.67;;
3341;SDS011;1684;50.748;6.154;2022-12-07T05:21:58;51.73;;;26.17;;
3341;SDS011;1684;50.748;6.154;2022-12-07T05:24:26;91.63;;;37.57;;
3341;SDS011;1684;50.748;6.154;2022-12-07T05:26:56;65.50;;;33.30;;
3341;SDS011;1684;50.748;6.154;2022-12-07T05:29:24;57.83;;;28.50;;
3341;SDS011;1684;50.748;6.154;2022-12-07T05:31:52;72.07;;;33.20;;
3341;SDS011;1684;50.748;6.154;2022-12-07T05:34:21;78.93;;;33.53;;
3341;SDS011;1684;50.748;6.154;2022-12-07T05:36:49;69.30;;;30.27;;
3341;SDS011;1684;50.748;6.154;2022-12-07T05:39:17;62.70;;;30.63;;
3341;SDS011;1684;50.748;6.154;2022-12-07T05:41:46;68.77;;;34.67;;
3341;SDS011;1684;50.748;6.154;2022-12-07T05:44:33;66.60;;;29.57;;
3341;SDS011;1684;50.748;6.154;2022-12-07T05:47:01;64.27;;;28.43;;
3341;SDS011;1684;50.748;6.154;2022-12-07T05:49:30;57.90;;;30.43;;
3341;SDS011;1684;50.748;6.154;2022-12-07T05:51:58;63.33;;;31.70;;
3341;SDS011;1684;50.748;6.154;2022-12-07T05:54:26;53.73;;;28.13;;
3341;SDS011;1684;50.748;6.154;2022-12-07T05:56:54;71.80;;;30.30;;
3341;SDS011;1684;50.748;6.154;2022-12-07T05:59:23;56.57;;;29.17;;
3341;SDS011;1684;50.748;6.154;2022-12-07T06:01:53;59.00;;;29.43;;
3341;SDS011;1684;50.748;6.154;2022-12-07T06:04:23;70.00;;;29.77;;
3341;SDS011;1684;50.748;6.154;2022-12-07T06:06:53;53.20;;;29.30;;
3341;SDS011;1684;50.748;6.154;2022-12-07T06:09:21;54.90;;;27.57;;
3341;SDS011;1684;50.748;6.154;2022-12-07T06:11:50;61.70;;;28.30;;
3341;SDS011;1684;50.748;6.154;2022-12-07T06:14:36;61.97;;;29.83;;
3341;SDS011;1684;50.748;6.154;2022-12-07T06:17:06;48.43;;;27.70;;
3341;SDS011;1684;50.748;6.154;2022-12-07T06:19:34;59.83;;;28.70;;
3341;SDS011;1684;50.748;6.154;2022-12-07T06:22:02;45.47;;;21.03;;
3341;SDS011;1684;50.748;6.154;2022-12-07T06:24:31;42.80;;;23.27;;
3341;SDS011;1684;50.748;6.154;2022-12-07T06:27:00;45.43;;;23.93;;
3341;SDS011;1684;50.748;6.154;2022-12-07T06:29:28;54.40;;;27.30;;
3341;SDS011;1684;50.748;6.154;2022-12-07T06:31:57;48.73;;;24.70;;
3341;SDS011;1684;50.748;6.154;2022-12-07T06:34:27;58.40;;;24.83;;
3341;SDS011;1684;50.748;6.154;2022-12-07T06:36:55;50.80;;;23.87;;
3341;SDS011;1684;50.748;6.154;2022-12-07T06:39:25;49.87;;;26.80;;
3341;SDS011;1684;50.748;6.154;2022-12-07T06:41:53;49.90;;;24.40;;
3341;SDS011;1684;50.748;6.154;2022-12-07T06:44:22;46.70;;;23.30;;
3341;SDS011;1684;50.748;6.154;2022-12-07T06:46:50;51.60;;;25.70;;
3341;SDS011;1684;50.748;6.154;2022-12-07T06:49:39;54.33;;;24.47;;
3341;SDS011;1684;50.748;6.154;2022-12-07T06:52:07;49.67;;;23.17;;
3341;SDS011;1684;50.748;6.154;2022-12-07T06:54:35;60.43;;;24.97;;
3341;SDS011;1684;50.748;6.154;2022-12-07T06:57:03;50.50;;;25.03;;
3341;SDS011;1684;50.748;6.154;2022-12-07T06:59:32;57.87;;;26.97;;
3341;SDS011;1684;50.748;6.154;2022-12-07T07:02:00;50.00;;;23.33;;
3341;SDS011;1684;50.748;6.154;2022-12-07T07:04:28;39.57;;;21.90;;
3341;SDS011;1684;50.748;6.154;2022-12-07T07:06:58;53.73;;;26.17;;
3341;SDS011;1684;50.748;6.154;2022-12-07T07:09:26;47.20;;;21.13;;
3341;SDS011;1684;50.748;6.154;2022-12-07T07:11:54;62.00;;;27.17;;
3341;SDS011;1684;50.748;6.154;2022-12-07T07:14:23;63.10;;;27.77;;
3341;SDS011;1684;50.748;6.154;2022-12-07T07:16:51;52.93;;;26.40;;
3341;SDS011;1684;50.748;6.154;2022-12-07T07:19:20;66.03;;;28.93;;
3341;SDS011;1684;50.748;6.154;2022-12-07T07:21:48;52.77;;;25.83;;
3341;SDS011;1684;50.748;6.154;2022-12-07T07:24:18;47.53;;;25.03;;
3341;SDS011;1684;50.748;6.154;2022-12-07T07:26:46;54.67;;;26.67;;
3341;SDS011;1684;50.748;6.154;2022-12-07T07:29:14;53.10;;;26.20;;
3341;SDS011;1684;50.748;6.154;2022-12-07T07:31:43;46.57;;;25.77;;
3341;SDS011;1684;50.748;6.154;2022-12-07T07:34:11;57.70;;;27.70;;
3341;SDS011;1684;50.748;6.154;2022-12-07T07:36:40;54.10;;;25.07;;
3341;SDS011;1684;50.748;6.154;2022-12-07T07:39:09;51.37;;;29.00;;
3341;SDS011;1684;50.748;6.154;2022-12-07T07:41:40;51.63;;;25.70;;
3341;SDS011;1684;50.748;6.154;2022-12-07T07:44:09;61.30;;;29.83;;
3341;SDS011;1684;50.748;6.154;2022-12-07T07:46:37;62.93;;;28.50;;
3341;SDS011;1684;50.748;6.154;2022-12-07T07:49:05;66.50;;;30.50;;
3341;SDS011;1684;50.748;6.154;2022-12-07T07:51:34;62.60;;;28.50;;
3341;SDS011;1684;50.748;6.154;2022-12-07T07:54:02;54.03;;;27.57;;
3341;SDS011;1684;50.748;6.154;2022-12-07T07:56:30;59.20;;;28.77;;
3341;SDS011;1684;50.748;6.154;2022-12-07T07:59:00;51.60;;;26.37;;
3341;SDS011;1684;50.748;6.154;2022-12-07T08:01:28;58.50;;;23.30;;
3341;SDS011;1684;50.748;6.154;2022-12-07T08:03:57;54.20;;;26.73;;
3341;SDS011;1684;50.748;6.154;2022-12-07T08:06:25;52.67;;;24.50;;
3341;SDS011;1684;50.748;6.154;2022-12-07T08:08:57;55.40;;;27.83;;
3341;SDS011;1684;50.748;6.154;2022-12-07T08:11:26;47.20;;;23.90;;
3341;SDS011;1684;50.748;6.154;2022-12-07T08:13:54;48.53;;;23.53;;
3341;SDS011;1684;50.748;6.154;2022-12-07T08:16:24;58.73;;;26.23;;
3341;SDS011;1684;50.748;6.154;2022-12-07T08:18:52;50.80;;;25.67;;
3341;SDS011;1684;50.748;6.154;2022-12-07T08:21:20;46.13;;;22.70;;
3341;SDS011;1684;50.748;6.154;2022-12-07T08:23:48;48.20;;;22.50;;
3341;SDS011;1684;50.748;6.154;2022-12-07T08:26:16;52.60;;;23.77;;
3341;SDS011;1684;50.748;6.154;2022-12-07T08:28:45;45.00;;;21.13;;
3341;SDS011;1684;50.748;6.154;2022-12-07T08:31:14;45.40;;;21.70;;
3341;SDS011;1684;50.748;6.154;2022-12-07T08:33:45;51.40;;;21.37;;
3341;SDS011;1684;50.748;6.154;2022-12-07T08:36:14;49.57;;;21.80;;
3341;SDS011;1684;50.748;6.154;2022-12-07T08:38:42;41.60;;;21.37;;
3341;SDS011;1684;50.748;6.154;2022-12-07T08:41:31;42.10;;;20.50;;
3341;SDS011;1684;50.748;6.154;2022-12-07T08:43:59;48.27;;;22.43;;
3341;SDS011;1684;50.748;6.154;2022-12-07T08:46:28;54.53;;;24.53;;
3341;SDS011;1684;50.748;6.154;2022-12-07T08:49:03;50.00;;;24.00;;
3341;SDS011;1684;50.748;6.154;2022-12-07T08:51:32;46.67;;;23.73;;
3341;SDS011;1684;50.748;6.154;2022-12-07T08:54:01;48.27;;;24.60;;
3341;SDS011;1684;50.748;6.154;2022-12-07T08:56:32;56.20;;;24.90;;
3341;SDS011;1684;50.748;6.154;2022-12-07T08:59:00;57.00;;;27.53;;
3341;SDS011;1684;50.748;6.154;2022-12-07T09:01:28;60.80;;;24.10;;
3341;SDS011;1684;50.748;6.154;2022-12-07T09:03:57;58.10;;;25.10;;
3341;SDS011;1684;50.748;6.154;2022-12-07T09:06:27;49.77;;;25.00;;
3341;SDS011;1684;50.748;6.154;2022-12-07T09:08:57;56.37;;;27.47;;
3341;SDS011;1684;50.748;6.154;2022-12-07T09:11:26;49.57;;;25.13;;
3341;SDS011;1684;50.748;6.154;2022-12-07T09:13:54;54.97;;;26.40;;
3341;SDS011;1684;50.748;6.154;2022-12-07T09:16:23;50.30;;;24.50;;
3341;SDS011;1684;50.748;6.154;2022-12-07T09:18:51;57.53;;;24.03;;
3341;SDS011;1684;50.748;6.154;2022-12-07T09:21:19;66.73;;;28.90;;
3341;SDS011;1684;50.748;6.154;2022-12-07T09:23:49;48.13;;;23.77;;
3341;SDS011;1684;50.748;6.154;2022-12-07T09:26:17;62.37;;;23.93;;
3341;SDS011;1684;50.748;6.154;2022-12-07T09:28:46;47.13;;;25.83;;
3341;SDS011;1684;50.748;6.154;2022-12-07T09:31:14;48.33;;;24.70;;
3341;SDS011;1684;50.748;6.154;2022-12-07T09:33:54;60.27;;;29.73;;
3341;SDS011;1684;50.748;6.154;2022-12-07T09:36:23;58.27;;;25.43;;
3341;SDS011;1684;50.748;6.154;2022-12-07T09:38:52;56.50;;;26.10;;
3341;SDS011;1684;50.748;6.154;2022-12-07T09:41:21;59.97;;;26.40;;
3341;SDS011;1684;50.748;6.154;2022-12-07T09:43:49;66.93;;;26.60;;
3341;SDS011;1684;50.748;6.154;2022-12-07T09:46:18;66.47;;;28.33;;
3341;SDS011;1684;50.748;6.154;2022-12-07T09:48:47;71.40;;;27.83;;
3341;SDS011;1684;50.748;6.154;2022-12-07T09:51:18;58.07;;;29.77;;
3341;SDS011;1684;50.748;6.154;2022-12-07T09:53:50;55.37;;;24.47;;
3341;SDS011;1684;50.748;6.154;2022-12-07T09:56:21;64.57;;;26.73;;
3341;SDS011;1684;50.748;6.154;2022-12-07T09:58:54;59.83;;;28.37;;
3341;SDS011;1684;50.748;6.154;2022-12-07T10:01:27;52.30;;;27.33;;
3341;SDS011;1684;50.748;6.154;2022-12-07T10:03:59;58.93;;;28.00;;
3341;SDS011;1684;50.748;6.154;2022-12-07T10:06:29;57.77;;;27.37;;
3341;SDS011;1684;50.748;6.154;2022-12-07T10:08:57;68.43;;;29.93;;
3341;SDS011;1684;50.748;6.154;2022-12-07T10:11:26;65.17;;;29.93;;
3341;SDS011;1684;50.748;6.154;2022-12-07T10:13:55;58.00;;;28.57;;
3341;SDS011;1684;50.748;6.154;2022-12-07T10:16:38;63.63;;;28.70;;
3341;SDS011;1684;50.748;6.154;2022-12-07T10:19:17;64.17;;;29.77;;
3341;SDS011;1684;50.748;6.154;2022-12-07T10:22:00;66.97;;;33.37;;
3341;SDS011;1684;50.748;6.154;2022-12-07T10:24:28;70.97;;;32.57;;
3341;SDS011;1684;50.748;6.154;2022-12-07T10:26:58;60.97;;;29.73;;
3341;SDS011;1684;50.748;6.154;2022-12-07T10:29:28;66.80;;;34.03;;
3341;SDS011;1684;50.748;6.154;2022-12-07T10:31:58;73.03;;;34.10;;
3341;SDS011;1684;50.748;6.154;2022-12-07T10:34:27;76.63;;;36.93;;
3341;SDS011;1684;50.748;6.154;2022-12-07T10:37:14;63.80;;;34.33;;
3341;SDS011;1684;50.748;6.154;2022-12-07T10:39:46;59.07;;;28.67;;
3341;SDS011;1684;50.748;6.154;2022-12-07T10:42:19;61.33;;;33.00;;
3341;SDS011;1684;50.748;6.154;2022-12-07T10:44:48;71.00;;;34.00;;
3341;SDS011;1684;50.748;6.154;2022-12-07T10:47:19;71.43;;;34.10;;
3341;SDS011;1684;50.748;6.154;2022-12-07T10:49:55;56.50;;;32.93;;
3341;SDS011;1684;50.748;6.154;2022-12-07T10:52:32;57.23;;;29.70;;
3341;SDS011;1684;50.748;6.154;2022-12-07T10:55:11;55.27;;;24.80;;
3341;SDS011;1684;50.748;6.154;2022-12-07T10:57:47;67.97;;;30.83;;
3341;SDS011;1684;50.748;6.154;2022-12-07T11:00:19;56.70;;;32.03;;
3341;SDS011;1684;50.748;6.154;2022-12-07T11:05:34;54.00;;;28.07;;
3341;SDS011;1684;50.748;6.154;2022-12-07T11:08:09;52.47;;;28.47;;
3341;SDS011;1684;50.748;6.154;2022-12-07T11:10:41;57.50;;;28.23;;
3341;SDS011;1684;50.748;6.154;2022-12-07T11:13:22;53.27;;;28.10;;
3341;SDS011;1684;50.748;6.154;2022-12-07T11:16:02;61.93;;;30.10;;
3341;SDS011;1684;50.748;6.154;2022-12-07T11:18:34;58.47;;;30.50;;
3341;SDS011;1684;50.748;6.154;2022-12-07T11:21:09;65.67;;;28.43;;
3341;SDS011;1684;50.748;6.154;2022-12-07T11:23:42;41.80;;;22.67;;
3341;SDS011;1684;50.748;6.154;2022-12-07T11:26:14;50.93;;;29.77;;
3341;SDS011;1684;50.748;6.154;2022-12-07T11:28:51;52.03;;;28.10;;
3341;SDS011;1684;50.748;6.154;2022-12-07T11:31:24;52.27;;;26.60;;
3341;SDS011;1684;50.748;6.154;2022-12-07T11:33:57;53.20;;;27.53;;
3341;SDS011;1684;50.748;6.154;2022-12-07T11:36:33;58.60;;;28.30;;
3341;SDS011;1684;50.748;6.154;2022-12-07T11:39:04;48.90;;;25.77;;
3341;SDS011;1684;50.748;6.154;2022-12-07T11:41:37;60.73;;;27.07;;
3341;SDS011;1684;50.748;6.154;2022-12-07T11:44:16;50.53;;;26.70;;
3341;SDS011;1684;50.748;6.154;2022-12-07T11:46:54;54.70;;;28.80;;
3341;SDS011;1684;50.748;6.154;2022-12-07T11:49:26;51.67;;;27.10;;
3341;SDS011;1684;50.748;6.154;2022-12-07T11:51:57;60.40;;;25.27;;
3341;SDS011;1684;50.748;6.154;2022-12-07T11:54:28;49.50;;;27.93;;
3341;SDS011;1684;50.748;6.154;2022-12-07T11:56:59;51.07;;;24.70;;
3341;SDS011;1684;50.748;6.154;2022-12-07T11:59:32;44.90;;;23.17;;
3341;SDS011;1684;50.748;6.154;2022-12-07T12:02:09;40.30;;;22.03;;
3341;SDS011;1684;50.748;6.154;2022-12-07T12:04:43;48.90;;;27.60;;
3341;SDS011;1684;50.748;6.154;2022-12-07T12:07:14;46.70;;;23.60;;
3341;SDS011;1684;50.748;6.154;2022-12-07T12:10:04;44.53;;;22.40;;
3341;SDS011;1684;50.748;6.154;2022-12-07T12:12:39;53.83;;;25.63;;
3341;SDS011;1684;50.748;6.154;2022-12-07T12:15:35;42.97;;;24.60;;
3341;SDS011;1684;50.748;6.154;2022-12-07T12:20:52;44.37;;;23.40;;
3341;SDS011;1684;50.748;6.154;2022-12-07T12:23:22;46.83;;;24.30;;
3341;SDS011;1684;50.748;6.154;2022-12-07T12:25:52;50.43;;;25.17;;
3341;SDS011;1684;50.748;6.154;2022-12-07T12:28:24;51.60;;;25.80;;
3341;SDS011;1684;50.748;6.154;2022-12-07T12:31:07;50.80;;;27.57;;
3341;SDS011;1684;50.748;6.154;2022-12-07T12:33:37;56.30;;;29.47;;
3341;SDS011;1684;50.748;6.154;2022-12-07T12:36:25;53.70;;;25.43;;
3341;SDS011;1684;50.748;6.154;2022-12-07T12:39:11;53.20;;;25.20;;
3341;SDS011;1684;50.748;6.154;2022-12-07T12:47:40;55.93;;;30.70;;
3341;SDS011;1684;50.748;6.154;2022-12-07T12:50:15;58.13;;;29.60;;
3341;SDS011;1684;50.748;6.154;2022-12-07T12:52:49;54.23;;;24.10;;
3341;SDS011;1684;50.748;6.154;2022-12-07T12:55:19;44.93;;;24.30;;
3341;SDS011;1684;50.748;6.154;2022-12-07T12:57:52;47.30;;;26.20;;
3341;SDS011;1684;50.748;6.154;2022-12-07T13:00:41;43.60;;;23.53;;
3341;SDS011;1684;50.748;6.154;2022-12-07T13:03:20;52.30;;;23.07;;
3341;SDS011;1684;50.748;6.154;2022-12-07T13:05:57;42.27;;;22.47;;
3341;SDS011;1684;50.748;6.154;2022-12-07T13:08:44;41.40;;;23.37;;
3341;SDS011;1684;50.748;6.154;2022-12-07T13:11:17;48.53;;;22.80;;
3341;SDS011;1684;50.748;6.154;2022-12-07T13:13:46;40.27;;;22.17;;
3341;SDS011;1684;50.748;6.154;2022-12-07T13:16:36;53.50;;;24.37;;
3341;SDS011;1684;50.748;6.154;2022-12-07T13:21:49;47.63;;;23.73;;
3341;SDS011;1684;50.748;6.154;2022-12-07T13:24:17;48.70;;;23.33;;
3341;SDS011;1684;50.748;6.154;2022-12-07T13:26:46;43.13;;;23.40;;
3341;SDS011;1684;50.748;6.154;2022-12-07T13:29:15;54.07;;;26.47;;
3341;SDS011;1684;50.748;6.154;2022-12-07T13:31:44;55.30;;;29.27;;
3341;SDS011;1684;50.748;6.154;2022-12-07T13:34:29;49.47;;;26.47;;
3341;SDS011;1684;50.748;6.154;2022-12-07T13:36:59;46.93;;;27.57;;
3341;SDS011;1684;50.748;6.154;2022-12-07T13:39:28;53.87;;;26.20;;
3341;SDS011;1684;50.748;6.154;2022-12-07T13:41:57;45.40;;;25.50;;
3341;SDS011;1684;50.748;6.154;2022-12-07T13:44:27;54.20;;;26.20;;
3341;SDS011;1684;50.748;6.154;2022-12-07T13:46:58;39.80;;;23.00;;
3341;SDS011;1684;50.748;6.154;2022-12-07T13:49:28;67.37;;;24.40;;
3341;SDS011;1684;50.748;6.154;2022-12-07T13:52:13;56.00;;;26.30;;
3341;SDS011;1684;50.748;6.154;2022-12-07T13:54:45;48.27;;;25.97;;
3341;SDS011;1684;50.748;6.154;2022-12-07T13:57:15;36.67;;;21.50;;
3341;SDS011;1684;50.748;6.154;2022-12-07T13:59:43;52.43;;;23.00;;
3341;SDS011;1684;50.748;6.154;2022-12-07T14:02:17;37.57;;;20.73;;
3341;SDS011;1684;50.748;6.154;2022-12-07T14:04:47;40.93;;;21.70;;
3341;SDS011;1684;50.748;6.154;2022-12-07T14:07:20;43.03;;;22.43;;
3341;SDS011;1684;50.748;6.154;2022-12-07T14:09:55;39.67;;;21.17;;
3341;SDS011;1684;50.748;6.154;2022-12-07T14:12:24;41.63;;;23.53;;
3341;SDS011;1684;50.748;6.154;2022-12-07T14:14:52;41.07;;;23.10;;
3341;SDS011;1684;50.748;6.154;2022-12-07T14:17:21;36.97;;;18.93;;
3341;SDS011;1684;50.748;6.154;2022-12-07T14:19:51;44.70;;;23.87;;
3341;SDS011;1684;50.748;6.154;2022-12-07T14:22:29;38.90;;;22.93;;
3341;SDS011;1684;50.748;6.154;2022-12-07T14:24:59;42.83;;;21.83;;
3341;SDS011;1684;50.748;6.154;2022-12-07T14:27:31;44.23;;;24.00;;
3341;SDS011;1684;50.748;6.154;2022-12-07T14:30:00;37.10;;;22.23;;
3341;SDS011;1684;50.748;6.154;2022-12-07T14:32:29;49.73;;;23.37;;
3341;SDS011;1684;50.748;6.154;2022-12-07T14:34:59;50.03;;;22.77;;
3341;SDS011;1684;50.748;6.154;2022-12-07T14:37:30;42.03;;;21.70;;
3341;SDS011;1684;50.748;6.154;2022-12-07T14:39:58;43.07;;;25.00;;
3341;SDS011;1684;50.748;6.154;2022-12-07T14:42:27;51.10;;;25.47;;
3341;SDS011;1684;50.748;6.154;2022-12-07T14:44:56;48.77;;;23.83;;
3341;SDS011;1684;50.748;6.154;2022-12-07T14:47:25;56.90;;;27.00;;
3341;SDS011;1684;50.748;6.154;2022-12-07T14:50:14;54.57;;;26.50;;
3341;SDS011;1684;50.748;6.154;2022-12-07T14:52:45;50.50;;;27.17;;
3341;SDS011;1684;50.748;6.154;2022-12-07T14:55:34;55.80;;;26.97;;
3341;SDS011;1684;50.748;6.154;2022-12-07T14:58:02;56.13;;;27.80;;
3341;SDS011;1684;50.748;6.154;2022-12-07T15:00:31;48.87;;;27.03;;
3341;SDS011;1684;50.748;6.154;2022-12-07T15:03:00;50.77;;;26.50;;
3341;SDS011;1684;50.748;6.154;2022-12-07T15:05:28;48.80;;;25.77;;
3341;SDS011;1684;50.748;6.154;2022-12-07T15:08:00;45.40;;;25.83;;
3341;SDS011;1684;50.748;6.154;2022-12-07T15:10:29;48.60;;;26.27;;
3341;SDS011;1684;50.748;6.154;2022-12-07T15:12:58;61.17;;;28.50;;
3341;SDS011;1684;50.748;6.154;2022-12-07T15:15:49;47.30;;;26.40;;
3341;SDS011;1684;50.748;6.154;2022-12-07T15:18:18;45.20;;;24.63;;
3341;SDS011;1684;50.748;6.154;2022-12-07T15:20:46;44.27;;;25.63;;
3341;SDS011;1684;50.748;6.154;2022-12-07T15:23:16;41.40;;;24.10;;
3341;SDS011;1684;50.748;6.154;2022-12-07T15:25:45;41.30;;;23.67;;
3341;SDS011;1684;50.748;6.154;2022-12-07T15:28:13;45.30;;;24.70;;
3341;SDS011;1684;50.748;6.154;2022-12-07T15:30:42;42.77;;;21.67;;
3341;SDS011;1684;50.748;6.154;2022-12-07T15:33:11;38.30;;;23.37;;